createdAt,value
2018-11-12T00:00:36.935Z,11.09
2018-11-12T00:03:06.521Z,11.06
2018-11-12T00:05:35.622Z,10.99
2018-11-12T00:08:05.218Z,10.96
2018-11-12T00:10:34.172Z,10.91
2018-11-12T00:13:03.259Z,10.85
2018-11-12T00:15:32.355Z,10.87
2018-11-12T00:18:01.275Z,10.87
2018-11-12T00:20:30.418Z,10.88
2018-11-12T00:22:59.457Z,10.88
2018-11-12T00:25:28.619Z,10.86
2018-11-12T00:27:58.025Z,10.84
2018-11-12T00:30:26.974Z,10.82
2018-11-12T00:32:55.954Z,10.82
2018-11-12T00:35:25.372Z,10.84
2018-11-12T00:37:54.319Z,10.84
2018-11-12T00:40:23.360Z,10.90
2018-11-12T00:42:52.371Z,10.90
2018-11-12T00:45:21.355Z,10.95
2018-11-12T00:47:50.394Z,10.95
2018-11-12T00:50:19.423Z,10.91
2018-11-12T00:52:48.429Z,10.93
2018-11-12T00:55:17.461Z,10.92
2018-11-12T00:57:46.386Z,10.93
2018-11-12T01:00:17.388Z,10.92
2018-11-12T01:02:48.134Z,10.95
2018-11-12T01:05:17.983Z,10.93
2018-11-12T01:07:47.843Z,10.90
2018-11-12T01:10:18.507Z,10.87
2018-11-12T01:12:48.057Z,10.83
2018-11-12T01:15:18.561Z,10.83
2018-11-12T01:17:47.584Z,10.81
2018-11-12T01:20:17.410Z,10.76
2018-11-12T01:22:46.377Z,10.77
2018-11-12T01:25:16.120Z,10.76
2018-11-12T01:27:45.626Z,10.75
2018-11-12T01:30:16.184Z,10.75
2018-11-12T01:32:45.343Z,10.76
2018-11-12T01:35:15.469Z,10.78
2018-11-12T01:37:44.640Z,10.80
2018-11-12T01:40:14.641Z,10.82
2018-11-12T01:42:43.999Z,10.80
2018-11-12T01:45:15.160Z,10.79
2018-11-12T01:47:45.542Z,10.77
2018-11-12T01:50:15.049Z,10.74
2018-11-12T01:52:44.758Z,10.71
2018-11-12T01:57:48.732Z,10.67
2018-11-12T02:00:20.166Z,10.66
2018-11-12T02:02:50.342Z,10.63
2018-11-12T02:05:19.623Z,10.61
2018-11-12T02:07:49.566Z,10.59
2018-11-12T02:10:19.224Z,10.55
2018-11-12T02:12:48.472Z,10.55
2018-11-12T02:15:19.071Z,10.53
2018-11-12T02:17:48.732Z,10.53
2018-11-12T02:20:18.904Z,10.52
2018-11-12T02:22:48.945Z,10.49
2018-11-12T02:25:18.106Z,10.50
2018-11-12T02:27:47.048Z,10.52
2018-11-12T02:30:21.161Z,10.56
2018-11-12T02:32:50.160Z,10.59
2018-11-12T02:35:19.162Z,10.61
2018-11-12T02:37:48.139Z,10.64
2018-11-12T02:40:17.583Z,10.68
2018-11-12T02:42:46.509Z,10.71
2018-11-12T02:45:15.524Z,10.72
2018-11-12T02:47:44.875Z,10.73
2018-11-12T02:50:15.093Z,10.71
2018-11-12T02:52:44.488Z,10.71
2018-11-12T02:55:15.679Z,10.65
2018-11-12T02:57:45.849Z,10.62
2018-11-12T03:00:17.031Z,10.58
2018-11-12T03:02:46.300Z,10.55
2018-11-12T03:05:15.400Z,10.54
2018-11-12T03:07:45.459Z,10.51
2018-11-12T03:10:18.281Z,10.49
2018-11-12T03:12:47.299Z,10.48
2018-11-12T03:15:17.415Z,10.48
2018-11-12T03:17:46.913Z,10.53
2018-11-12T03:20:17.135Z,10.53
2018-11-12T03:22:46.103Z,10.51
2018-11-12T03:25:16.375Z,10.51
2018-11-12T03:27:46.169Z,10.50
2018-11-12T03:30:17.166Z,10.50
2018-11-12T03:32:46.968Z,10.50
2018-11-12T03:35:16.317Z,10.51
2018-11-12T03:37:46.304Z,10.55
2018-11-12T03:40:17.389Z,10.58
2018-11-12T03:42:46.759Z,10.60
2018-11-12T03:45:19.791Z,10.61
2018-11-12T03:47:48.691Z,10.62
2018-11-12T03:50:18.847Z,10.61
2018-11-12T03:52:47.871Z,10.60
2018-11-12T03:55:20.127Z,10.58
2018-11-12T03:57:49.648Z,10.57
2018-11-12T04:00:21.536Z,10.56
2018-11-12T04:02:50.389Z,10.53
2018-11-12T04:05:19.540Z,10.50
2018-11-12T04:07:48.357Z,10.50
2018-11-12T04:10:19.294Z,10.48
2018-11-12T04:12:48.978Z,10.48
2018-11-12T04:15:19.554Z,10.49
2018-11-12T04:17:48.536Z,10.49
2018-11-12T04:20:19.015Z,10.46
2018-11-12T04:22:57.314Z,10.47
2018-11-12T04:25:26.443Z,10.47
2018-11-12T04:27:55.668Z,10.43
2018-11-12T04:30:24.855Z,10.37
2018-11-12T04:32:53.737Z,10.33
2018-11-12T04:35:24.232Z,10.30
2018-11-12T04:37:53.641Z,10.27
2018-11-12T04:40:23.007Z,10.28
2018-11-12T04:42:52.779Z,10.28
2018-11-12T04:45:23.175Z,10.28
2018-11-12T04:47:52.644Z,10.28
2018-11-12T04:50:23.766Z,10.26
2018-11-12T04:52:53.383Z,10.25
2018-11-12T04:55:23.424Z,10.27
2018-11-12T04:57:52.663Z,10.24
2018-11-12T05:00:24.526Z,10.24
2018-11-12T05:02:53.433Z,10.23
2018-11-12T05:05:24.210Z,10.22
2018-11-12T05:07:53.814Z,10.20
2018-11-12T05:10:24.036Z,10.20
2018-11-12T05:12:53.927Z,10.21
2018-11-12T05:15:23.908Z,10.25
2018-11-12T05:17:53.028Z,10.29
2018-11-12T05:20:24.615Z,10.33
2018-11-12T05:22:54.315Z,10.36
2018-11-12T05:25:23.553Z,10.39
2018-11-12T05:27:52.627Z,10.41
2018-11-12T05:30:24.570Z,10.44
2018-11-12T05:32:53.435Z,10.44
2018-11-12T05:35:23.717Z,10.45
2018-11-12T05:37:52.801Z,10.47
2018-11-12T05:40:24.286Z,10.48
2018-11-12T05:42:53.450Z,10.49
2018-11-12T05:45:25.080Z,10.50
2018-11-12T05:47:54.385Z,10.52
2018-11-12T05:50:25.966Z,10.53
2018-11-12T05:52:57.980Z,10.52
2018-11-12T05:55:28.450Z,10.53
2018-11-12T05:57:57.511Z,10.53
2018-11-12T06:00:30.624Z,10.53
2018-11-12T06:02:59.904Z,10.53
2018-11-12T06:05:28.917Z,10.53
2018-11-12T06:07:58.571Z,10.54
2018-11-12T06:10:29.137Z,10.55
2018-11-12T06:12:58.435Z,10.56
2018-11-12T06:15:27.655Z,10.55
2018-11-12T06:17:57.055Z,10.54
2018-11-12T06:20:30.355Z,10.55
2018-11-12T06:22:59.456Z,10.53
2018-11-12T06:25:30.490Z,10.53
2018-11-12T06:27:59.541Z,10.52
2018-11-12T06:30:30.062Z,10.52
2018-11-12T06:32:59.865Z,10.52
2018-11-12T06:35:28.945Z,10.53
2018-11-12T06:37:58.218Z,10.55
2018-11-12T06:40:28.208Z,10.56
2018-11-12T06:42:57.448Z,10.57
2018-11-12T06:45:28.034Z,10.57
2018-11-12T06:47:58.003Z,10.60
2018-11-12T06:50:31.056Z,10.60
2018-11-12T06:53:00.654Z,10.63
2018-11-12T06:55:30.349Z,10.65
2018-11-12T06:57:59.360Z,10.69
2018-11-12T07:00:36.325Z,10.72
2018-11-12T07:03:05.422Z,10.73
2018-11-12T07:05:34.367Z,10.72
2018-11-12T07:08:04.499Z,10.73
2018-11-12T07:10:33.418Z,10.73
2018-11-12T07:13:02.582Z,10.75
2018-11-12T07:15:31.918Z,10.76
2018-11-12T07:18:02.154Z,10.77
2018-11-12T07:20:31.253Z,10.79
2018-11-12T07:23:00.689Z,10.82
2018-11-12T07:25:30.756Z,10.84
2018-11-12T07:28:00.905Z,10.88
2018-11-12T07:30:30.068Z,10.90
2018-11-12T07:33:00.204Z,10.94
2018-11-12T07:35:33.434Z,10.98
2018-11-12T07:38:03.913Z,10.98
2018-11-12T07:40:32.998Z,11.02
2018-11-12T07:43:02.631Z,11.05
2018-11-12T07:45:32.375Z,11.08
2018-11-12T07:48:05.761Z,11.10
2018-11-12T07:50:34.792Z,11.12
2018-11-12T07:53:03.718Z,11.13
2018-11-12T07:55:32.862Z,11.14
2018-11-12T07:58:03.005Z,11.14
2018-11-12T08:00:33.537Z,11.19
2018-11-12T08:03:11.742Z,11.22
2018-11-12T08:05:41.597Z,11.25
2018-11-12T08:08:16.903Z,11.26
2018-11-12T08:10:45.990Z,11.25
2018-11-12T08:13:15.583Z,11.26
2018-11-12T08:15:44.528Z,11.25
2018-11-12T08:18:13.714Z,11.21
2018-11-12T08:20:43.415Z,11.20
2018-11-12T08:23:12.549Z,11.22
2018-11-12T08:25:41.692Z,11.24
2018-11-12T08:28:12.768Z,11.25
2018-11-12T08:30:41.811Z,11.27
2018-11-12T08:33:10.927Z,11.30
2018-11-12T08:35:39.912Z,11.30
2018-11-12T08:38:10.080Z,11.32
2018-11-12T08:40:39.251Z,11.33
2018-11-12T08:43:08.200Z,11.39
2018-11-12T08:45:37.360Z,11.41
2018-11-12T08:48:09.557Z,11.45
2018-11-12T08:50:38.592Z,11.49
2018-11-12T08:53:07.723Z,11.57
2018-11-12T08:55:36.818Z,11.67
2018-11-12T08:58:06.115Z,11.69
2018-11-12T09:00:35.234Z,11.74
2018-11-12T09:03:04.274Z,11.85
2018-11-12T09:05:33.618Z,11.96
2018-11-12T09:08:19.276Z,12.05
2018-11-12T09:10:48.313Z,12.05
2018-11-12T09:13:17.579Z,12.06
2018-11-12T09:15:46.699Z,12.02
2018-11-12T09:18:29.748Z,12.00
2018-11-12T09:20:58.850Z,12.03
2018-11-12T09:23:27.832Z,12.05
2018-11-12T09:25:56.874Z,12.19
2018-11-12T09:28:33.448Z,12.31
2018-11-12T09:31:03.929Z,12.37
2018-11-12T09:33:31.530Z,12.46
2018-11-12T09:36:00.530Z,12.63
2018-11-12T09:38:29.986Z,12.78
2018-11-12T09:40:58.966Z,12.84
2018-11-12T09:43:28.157Z,12.87
2018-11-12T09:45:58.323Z,13.06
2018-11-12T09:48:30.669Z,13.43
2018-11-12T09:50:59.645Z,13.85
2018-11-12T09:53:28.999Z,14.15
2018-11-12T09:56:00.710Z,14.30
2018-11-12T09:58:31.816Z,14.30
2018-11-12T10:01:01.857Z,14.29
2018-11-12T10:03:32.054Z,14.19
2018-11-12T10:06:02.154Z,14.02
2018-11-12T10:08:34.669Z,13.80
2018-11-12T10:11:04.434Z,13.62
2018-11-12T10:13:33.574Z,13.51
2018-11-12T10:16:03.085Z,13.57
2018-11-12T10:18:35.589Z,13.81
2018-11-12T10:21:04.588Z,14.03
2018-11-12T10:23:33.688Z,14.23
2018-11-12T10:26:03.069Z,14.11
2018-11-12T10:28:33.942Z,13.94
2018-11-12T10:31:02.837Z,13.80
2018-11-12T10:33:31.919Z,13.66
2018-11-12T10:36:00.913Z,13.65
2018-11-12T10:38:51.653Z,13.83
2018-11-12T10:41:20.669Z,13.75
2018-11-12T10:43:49.634Z,13.71
2018-11-12T10:46:18.622Z,13.80
2018-11-12T10:48:47.798Z,13.87
2018-11-12T10:51:16.941Z,14.02
2018-11-12T10:53:50.206Z,14.05
2018-11-12T10:56:15.025Z,14.01
2018-11-12T10:58:44.158Z,13.94
2018-11-12T11:01:23.042Z,13.84
2018-11-12T11:03:54.065Z,13.70
2018-11-12T11:06:22.962Z,13.66
2018-11-12T11:08:52.063Z,13.71
2018-11-12T11:11:21.121Z,13.72
2018-11-12T11:13:50.161Z,13.64
2018-11-12T11:16:19.755Z,13.59
2018-11-12T11:18:57.651Z,13.53
2018-11-12T11:21:26.871Z,13.46
2018-11-12T11:23:55.873Z,13.40
2018-11-12T11:26:25.203Z,13.44
2018-11-12T11:28:56.262Z,13.51
2018-11-12T11:31:25.244Z,13.54
2018-11-12T11:33:54.233Z,13.46
2018-11-12T11:36:24.014Z,13.39
2018-11-12T11:39:07.292Z,13.41
2018-11-12T11:41:36.532Z,13.36
2018-11-12T11:44:05.677Z,13.36
2018-11-12T11:46:34.672Z,13.36
2018-11-12T11:49:06.143Z,13.36
2018-11-12T11:51:35.539Z,13.38
2018-11-12T11:54:04.614Z,13.38
2018-11-12T11:56:33.794Z,13.39
2018-11-12T11:59:06.139Z,13.44
2018-11-12T12:01:39.296Z,13.50
2018-11-12T12:04:08.542Z,13.59
2018-11-12T12:06:37.701Z,13.67
2018-11-12T12:09:13.245Z,13.70
2018-11-12T12:11:42.209Z,13.71
2018-11-12T12:14:11.410Z,13.69
2018-11-12T12:16:40.355Z,13.73
2018-11-12T12:19:09.793Z,13.77
2018-11-12T12:21:39.469Z,13.86
2018-11-12T12:24:08.548Z,13.93
2018-11-12T12:26:37.620Z,13.90
2018-11-12T12:29:14.353Z,14.16
2018-11-12T12:31:43.407Z,13.98
2018-11-12T12:34:12.405Z,13.89
2018-11-12T12:36:41.542Z,13.74
2018-11-12T12:39:11.402Z,13.60
2018-11-12T12:41:40.469Z,13.42
2018-11-12T12:44:09.681Z,13.28
2018-11-12T12:46:38.922Z,13.26
2018-11-12T12:49:08.013Z,13.30
2018-11-12T12:51:37.222Z,13.27
2018-11-12T12:54:06.395Z,13.16
2018-11-12T12:56:35.407Z,13.01
2018-11-12T12:59:04.429Z,12.92
2018-11-12T13:01:33.543Z,12.96
2018-11-12T13:04:02.494Z,12.96
2018-11-12T13:06:31.667Z,12.92
2018-11-12T13:09:00.695Z,12.87
2018-11-12T13:11:29.784Z,12.81
2018-11-12T13:13:58.909Z,12.71
2018-11-12T13:16:28.070Z,12.65
2018-11-12T13:18:57.047Z,12.52
2018-11-12T13:21:26.183Z,12.50
2018-11-12T13:23:55.275Z,12.47
2018-11-12T13:26:24.386Z,12.45
2018-11-12T13:28:53.466Z,12.46
2018-11-12T13:31:22.707Z,12.48
2018-11-12T13:33:51.750Z,12.52
2018-11-12T13:36:20.784Z,12.62
2018-11-12T13:38:49.896Z,12.71
2018-11-12T13:41:18.917Z,12.73
2018-11-12T13:43:47.941Z,12.70
2018-11-12T13:46:17.917Z,12.69
2018-11-12T13:48:47.065Z,12.68
2018-11-12T13:51:16.582Z,12.62
2018-11-12T13:53:45.696Z,12.58
2018-11-12T13:56:14.707Z,12.50
2018-11-12T13:58:43.698Z,12.47
2018-11-12T14:01:12.803Z,12.42
2018-11-12T14:03:41.873Z,12.42
2018-11-12T14:06:10.945Z,12.36
2018-11-12T14:08:40.022Z,12.42
2018-11-12T14:11:09.060Z,12.41
2018-11-12T14:13:38.124Z,12.46
2018-11-12T14:16:07.239Z,12.46
2018-11-12T14:18:36.438Z,12.46
2018-11-12T14:21:05.641Z,12.43
2018-11-12T14:23:34.670Z,12.45
2018-11-12T14:26:03.718Z,12.45
2018-11-12T14:28:32.778Z,12.42
2018-11-12T14:31:01.718Z,12.39
2018-11-12T14:33:30.730Z,12.37
2018-11-12T14:35:59.943Z,12.44
2018-11-12T14:38:28.970Z,12.42
2018-11-12T14:40:57.993Z,12.44
2018-11-12T14:43:26.962Z,12.43
2018-11-12T14:45:57.246Z,12.40
2018-11-12T14:48:26.335Z,12.38
2018-11-12T14:50:55.831Z,12.37
2018-11-12T14:53:24.952Z,12.34
2018-11-12T14:55:53.938Z,12.30
2018-11-12T14:58:22.963Z,12.30
2018-11-12T15:00:51.958Z,12.25
2018-11-12T15:03:21.025Z,12.22
2018-11-12T15:05:50.117Z,12.26
2018-11-12T15:08:19.162Z,12.27
2018-11-12T15:10:48.320Z,12.22
2018-11-12T15:13:17.484Z,12.20
2018-11-12T15:15:46.633Z,12.19
2018-11-12T15:18:15.605Z,12.20
2018-11-12T15:20:44.650Z,12.16
2018-11-12T15:23:13.746Z,12.13
2018-11-12T15:25:42.895Z,12.12
2018-11-12T15:28:12.015Z,12.08
2018-11-12T15:30:41.046Z,12.04
2018-11-12T15:33:10.103Z,12.02
2018-11-12T15:35:39.233Z,12.00
2018-11-12T15:38:08.358Z,11.96
2018-11-12T15:40:38.401Z,11.90
2018-11-12T15:43:07.531Z,11.85
2018-11-12T15:45:36.530Z,11.84
2018-11-12T15:48:05.775Z,11.83
2018-11-12T15:50:36.589Z,11.86
2018-11-12T15:53:05.648Z,11.83
2018-11-12T15:55:34.750Z,11.80
2018-11-12T15:58:04.243Z,11.79
2018-11-12T16:00:33.238Z,11.79
2018-11-12T16:03:02.368Z,11.79
2018-11-12T16:05:31.367Z,11.73
2018-11-12T16:08:00.309Z,11.72
2018-11-12T16:10:29.316Z,11.71
2018-11-12T16:12:58.428Z,11.69
2018-11-12T16:15:27.620Z,11.67
2018-11-12T16:17:56.686Z,11.68
2018-11-12T16:20:28.807Z,11.65
2018-11-12T16:22:58.853Z,11.58
2018-11-12T16:25:28.475Z,11.57
2018-11-12T16:27:57.633Z,11.57
2018-11-12T16:30:26.694Z,11.57
2018-11-12T16:32:55.757Z,11.63
2018-11-12T16:35:25.463Z,11.64
2018-11-12T16:37:55.513Z,11.65
2018-11-12T16:40:24.636Z,11.64
2018-11-12T16:42:53.661Z,11.65
2018-11-12T16:45:22.634Z,11.67
2018-11-12T16:47:51.604Z,11.69
2018-11-12T16:50:20.640Z,11.70
2018-11-12T16:52:49.857Z,11.65
2018-11-12T16:55:20.270Z,11.68
2018-11-12T16:57:49.967Z,11.70
2018-11-12T17:00:20.094Z,11.65
2018-11-12T17:02:49.841Z,11.64
2018-11-12T17:05:20.121Z,11.64
2018-11-12T17:07:49.097Z,11.63
2018-11-12T17:10:19.984Z,11.63
2018-11-12T17:12:49.579Z,11.58
2018-11-12T17:15:19.261Z,11.55
2018-11-12T17:17:48.398Z,11.59
2018-11-12T17:20:19.057Z,11.62
2018-11-12T17:22:48.380Z,11.63
2018-11-12T17:25:17.990Z,11.60
2018-11-12T17:27:50.186Z,11.56
2018-11-12T17:30:20.603Z,11.50
2018-11-12T17:32:50.026Z,11.52
2018-11-12T17:35:20.226Z,11.45
2018-11-12T17:37:49.163Z,11.40
2018-11-12T17:40:24.897Z,11.36
2018-11-12T17:42:54.621Z,11.35
2018-11-12T17:45:25.146Z,11.47
2018-11-12T17:47:55.309Z,11.47
2018-11-12T17:50:24.286Z,11.48
2018-11-12T17:52:53.896Z,11.45
2018-11-12T17:55:23.564Z,11.46
2018-11-12T17:57:52.902Z,11.42
2018-11-12T18:00:24.974Z,11.43
2018-11-12T18:02:54.331Z,11.44
2018-11-12T18:05:23.458Z,11.46
2018-11-12T18:07:53.820Z,11.45
2018-11-12T18:10:25.171Z,11.38
2018-11-12T18:12:54.589Z,11.34
2018-11-12T18:15:24.792Z,11.30
2018-11-12T18:17:53.800Z,11.25
2018-11-12T18:20:25.028Z,11.22
2018-11-12T18:22:55.308Z,11.19
2018-11-12T18:25:25.165Z,11.19
2018-11-12T18:27:54.727Z,11.17
2018-11-12T18:30:29.315Z,11.17
2018-11-12T18:32:59.448Z,11.16
2018-11-12T18:35:28.517Z,11.16
2018-11-12T18:37:57.619Z,11.19
2018-11-12T18:40:27.943Z,11.19
2018-11-12T18:42:56.898Z,11.21
2018-11-12T18:45:27.289Z,11.20
2018-11-12T18:47:56.594Z,11.27
2018-11-12T18:50:28.038Z,11.25
2018-11-12T18:52:57.811Z,11.24
2018-11-12T18:55:27.258Z,11.25
2018-11-12T18:57:57.269Z,11.27
2018-11-12T19:00:27.041Z,11.27
2018-11-12T19:02:56.594Z,11.28
2018-11-12T19:05:28.108Z,11.30
2018-11-12T19:07:58.902Z,11.29
2018-11-12T19:10:30.789Z,11.29
2018-11-12T19:12:59.945Z,11.26
2018-11-12T19:15:31.698Z,11.23
2018-11-12T19:18:03.744Z,11.20
2018-11-12T19:20:33.115Z,11.26
2018-11-12T19:23:02.251Z,11.25
2018-11-12T19:25:31.698Z,11.31
2018-11-12T19:28:00.922Z,11.28
2018-11-12T19:30:30.403Z,11.22
2018-11-12T19:32:59.654Z,11.15
2018-11-12T19:35:30.881Z,11.06
2018-11-12T19:38:01.419Z,10.97
2018-11-12T19:40:32.227Z,10.84
2018-11-12T19:43:01.488Z,10.83
2018-11-12T19:45:30.718Z,10.80
2018-11-12T19:48:00.000Z,10.78
2018-11-12T19:50:30.577Z,10.74
2018-11-12T19:53:01.107Z,10.70
2018-11-12T19:55:30.856Z,10.64
2018-11-12T19:58:00.036Z,10.66
2018-11-12T20:00:30.458Z,10.63
2018-11-12T20:03:01.325Z,10.62
2018-11-12T20:05:30.543Z,10.55
2018-11-12T20:08:00.436Z,10.48
2018-11-12T20:10:29.664Z,10.47
2018-11-12T20:12:59.148Z,10.49
2018-11-12T20:15:29.669Z,10.52
2018-11-12T20:17:58.832Z,10.54
2018-11-12T20:20:31.249Z,10.50
2018-11-12T20:23:00.754Z,10.48
2018-11-12T20:25:29.953Z,10.46
2018-11-12T20:27:59.586Z,10.53
2018-11-12T20:30:33.718Z,10.57
2018-11-12T20:33:02.813Z,10.60
2018-11-12T20:35:32.599Z,10.69
2018-11-12T20:38:01.815Z,10.70
2018-11-12T20:40:31.026Z,10.70
2018-11-12T20:43:02.543Z,10.68
2018-11-12T20:45:31.782Z,10.62
2018-11-12T20:48:01.157Z,10.61
2018-11-12T20:50:30.504Z,10.60
2018-11-12T20:52:59.560Z,10.58
2018-11-12T20:55:28.951Z,10.61
2018-11-12T20:57:58.390Z,10.66
2018-11-12T21:00:29.229Z,10.63
2018-11-12T21:02:58.373Z,10.58
2018-11-12T21:05:29.079Z,10.52
2018-11-12T21:07:58.176Z,10.51
2018-11-12T21:10:27.893Z,10.48
2018-11-12T21:12:57.407Z,10.46
2018-11-12T21:15:26.693Z,10.48
2018-11-12T21:17:55.960Z,10.46
2018-11-12T21:20:25.982Z,10.43
2018-11-12T21:22:55.101Z,10.45
2018-11-12T21:25:26.421Z,10.44
2018-11-12T21:27:55.439Z,10.44
2018-11-12T21:30:25.756Z,10.46
2018-11-12T21:32:55.506Z,10.47
2018-11-12T21:35:24.704Z,10.49
2018-11-12T21:37:55.156Z,10.49
2018-11-12T21:40:25.621Z,10.48
2018-11-12T21:42:54.953Z,10.42
2018-11-12T21:45:26.725Z,10.39
2018-11-12T21:47:55.710Z,10.36
2018-11-12T21:50:24.906Z,10.32
2018-11-12T21:52:54.159Z,10.26
2018-11-12T21:55:23.862Z,10.25
2018-11-12T21:57:53.220Z,10.26
2018-11-12T22:00:24.103Z,10.23
2018-11-12T22:02:54.527Z,10.20
2018-11-12T22:05:24.563Z,10.18
2018-11-12T22:07:53.737Z,10.16
2018-11-12T22:10:22.991Z,10.13
2018-11-12T22:12:52.856Z,10.08
2018-11-12T22:15:22.240Z,10.10
2018-11-12T22:17:52.187Z,10.10
2018-11-12T22:20:22.631Z,10.09
2018-11-12T22:22:52.061Z,10.12
2018-11-12T22:25:22.358Z,10.09
2018-11-12T22:27:52.247Z,10.09
2018-11-12T22:30:22.756Z,10.08
2018-11-12T22:32:52.658Z,10.05
2018-11-12T22:35:21.645Z,10.08
2018-11-12T22:37:50.829Z,10.09
2018-11-12T22:40:20.913Z,10.10
2018-11-12T22:42:51.007Z,10.14
2018-11-12T22:45:25.461Z,10.13
2018-11-12T22:47:58.234Z,10.13
2018-11-12T22:50:27.843Z,10.16
2018-11-12T22:52:57.481Z,10.15
2018-11-12T22:55:26.520Z,10.18
2018-11-12T22:57:55.536Z,10.17
2018-11-12T23:00:29.827Z,10.16
2018-11-12T23:02:59.616Z,10.14
2018-11-12T23:05:28.870Z,10.16
2018-11-12T23:07:58.415Z,10.23
2018-11-12T23:10:27.564Z,10.26
2018-11-12T23:12:57.589Z,10.34
2018-11-12T23:15:31.038Z,10.36
2018-11-12T23:17:59.917Z,10.40
2018-11-12T23:20:30.021Z,10.47
2018-11-12T23:22:59.417Z,10.52
2018-11-12T23:25:29.215Z,10.51
2018-11-12T23:27:58.366Z,10.55
2018-11-12T23:30:31.811Z,10.60
2018-11-12T23:33:01.618Z,10.65
2018-11-12T23:35:31.271Z,10.69
2018-11-12T23:38:00.303Z,10.69
2018-11-12T23:40:30.179Z,10.71
2018-11-12T23:42:59.144Z,10.77
2018-11-12T23:45:29.220Z,10.72
2018-11-12T23:47:58.122Z,10.64
2018-11-12T23:50:27.471Z,10.57
2018-11-12T23:52:56.647Z,10.55
2018-11-12T23:55:26.187Z,10.51
2018-11-12T23:57:55.491Z,10.50
